createdAt,value
2018-08-28T00:01:43.039Z,3.92
2018-08-28T00:04:10.444Z,4.00
2018-08-28T00:06:38.211Z,4.08
2018-08-28T00:09:05.815Z,3.67
2018-08-28T00:11:33.338Z,3.10
2018-08-28T00:14:01.226Z,4.90
2018-08-28T00:16:33.193Z,3.70
2018-08-28T00:19:01.469Z,4.00
2018-08-28T00:21:28.914Z,3.67
2018-08-28T00:23:56.357Z,3.92
2018-08-28T00:26:24.892Z,3.92
2018-08-28T00:28:54.508Z,3.55
2018-08-28T00:31:23.320Z,3.52
2018-08-28T00:33:55.110Z,3.52
2018-08-28T00:36:22.526Z,3.15
2018-08-28T00:38:50.323Z,3.47
2018-08-28T00:41:17.764Z,3.20
2018-08-28T00:43:49.123Z,3.15
2018-08-28T00:46:16.834Z,4.75
2018-08-28T00:48:45.224Z,3.00
2018-08-28T00:51:12.796Z,3.30
2018-08-28T00:53:40.244Z,3.40
2018-08-28T00:56:08.269Z,3.30
2018-08-28T00:58:35.657Z,3.90
2018-08-28T01:01:03.207Z,3.80
2018-08-28T01:03:35.926Z,3.55
2018-08-28T01:06:04.549Z,3.35
2018-08-28T01:08:36.546Z,3.50
2018-08-28T01:11:04.129Z,3.22
2018-08-28T01:13:31.570Z,3.05
2018-08-28T01:15:59.038Z,4.22
2018-08-28T01:18:27.137Z,4.42
2018-08-28T01:20:58.850Z,3.33
2018-08-28T01:23:26.445Z,3.05
2018-08-28T01:25:55.597Z,3.20
2018-08-28T01:28:23.513Z,3.22
2018-08-28T01:30:51.352Z,3.40
2018-08-28T01:33:18.771Z,3.67
2018-08-28T01:35:46.907Z,4.12
2018-08-28T01:38:14.393Z,3.20
2018-08-28T01:40:41.817Z,3.08
2018-08-28T01:43:14.726Z,4.50
2018-08-28T01:45:46.559Z,3.77
2018-08-28T01:48:15.036Z,4.12
2018-08-28T01:50:42.517Z,3.67
2018-08-28T01:53:11.132Z,3.98
2018-08-28T01:55:38.877Z,4.12
2018-08-28T01:58:10.530Z,3.33
2018-08-28T02:03:05.050Z,3.70
2018-08-28T02:18:32.728Z,3.55
2018-08-28T02:21:00.269Z,3.85
2018-08-28T02:23:31.945Z,3.65
2018-08-28T02:26:04.534Z,3.98
2018-08-28T02:28:32.663Z,3.40
2018-08-28T02:31:00.439Z,3.50
2018-08-28T02:33:28.125Z,3.55
2018-08-28T02:36:01.693Z,3.42
2018-08-28T02:38:29.105Z,3.47
2018-08-28T02:40:57.133Z,3.80
2018-08-28T02:43:25.261Z,3.77
2018-08-28T02:45:53.922Z,4.45
2018-08-28T02:48:21.455Z,4.30
2018-08-28T02:50:49.869Z,3.62
2018-08-28T02:53:17.227Z,3.55
2018-08-28T02:55:44.722Z,3.77
2018-08-28T02:58:12.699Z,4.55
2018-08-28T03:00:40.881Z,4.65
2018-08-28T03:03:09.063Z,4.10
2018-08-28T03:05:37.551Z,4.47
2018-08-28T03:08:05.147Z,3.80
2018-08-28T03:10:32.979Z,4.15
2018-08-28T03:13:00.383Z,4.10
2018-08-28T03:15:31.957Z,4.05
2018-08-28T03:17:59.390Z,4.40
2018-08-28T03:20:29.312Z,4.00
2018-08-28T03:22:57.472Z,3.80
2018-08-28T03:25:26.954Z,4.40
2018-08-28T03:27:54.703Z,4.95
2018-08-28T03:30:22.970Z,4.08
2018-08-28T03:32:54.912Z,4.90
2018-08-28T03:35:23.042Z,5.90
2018-08-28T03:37:51.240Z,5.83
2018-08-28T03:40:18.719Z,3.95
2018-08-28T03:42:46.566Z,5.90
2018-08-28T03:45:15.066Z,5.25
2018-08-28T03:47:43.045Z,4.75
2018-08-28T03:50:10.645Z,4.87
2018-08-28T03:52:42.214Z,5.42
2018-08-28T03:55:10.242Z,4.83
2018-08-28T03:57:37.619Z,5.05
2018-08-28T04:00:05.298Z,5.10
2018-08-28T04:02:33.544Z,5.30
2018-08-28T04:05:01.095Z,6.80
2018-08-28T04:07:28.548Z,5.40
2018-08-28T04:09:56.890Z,5.70
2018-08-28T04:14:57.484Z,5.45
2018-08-28T04:17:28.921Z,5.45
2018-08-28T04:19:56.374Z,6.05
2018-08-28T04:22:23.846Z,6.12
2018-08-28T04:24:51.616Z,6.35
2018-08-28T04:27:19.195Z,6.45
2018-08-28T04:29:49.591Z,6.33
2018-08-28T04:32:17.162Z,6.03
2018-08-28T04:34:45.605Z,5.50
2018-08-28T04:37:13.052Z,6.12
2018-08-28T04:39:40.460Z,5.30
2018-08-28T04:42:12.333Z,7.45
2018-08-28T04:44:40.362Z,5.20
2018-08-28T04:47:07.854Z,6.05
2018-08-28T04:49:35.256Z,5.53
2018-08-28T04:52:03.465Z,6.10
2018-08-28T04:54:30.835Z,6.37
2018-08-28T04:56:59.183Z,6.33
2018-08-28T04:59:26.830Z,7.03
2018-08-28T05:01:58.393Z,6.30
2018-08-28T05:04:30.678Z,6.70
2018-08-28T05:06:58.451Z,7.20
2018-08-28T05:09:25.854Z,7.20
2018-08-28T05:11:53.612Z,6.53
2018-08-28T05:14:25.756Z,6.00
2018-08-28T05:16:53.703Z,5.67
2018-08-28T05:19:21.352Z,6.97
2018-08-28T05:21:48.604Z,6.92
2018-08-28T05:24:16.536Z,6.42
2018-08-28T05:26:44.129Z,5.70
2018-08-28T05:29:11.446Z,6.65
2018-08-28T05:31:38.942Z,6.83
2018-08-28T05:34:06.591Z,6.87
2018-08-28T05:36:33.906Z,6.50
2018-08-28T05:39:01.927Z,7.60
2018-08-28T05:41:29.394Z,5.97
2018-08-28T05:43:56.784Z,6.65
2018-08-28T05:46:24.114Z,7.10
2018-08-28T05:48:51.401Z,6.95
2018-08-28T05:51:18.730Z,7.22
2018-08-28T05:53:46.140Z,7.28
2018-08-28T05:56:14.291Z,6.95
2018-08-28T05:58:41.574Z,6.53
2018-08-28T06:01:08.923Z,6.55
2018-08-28T06:03:36.403Z,7.08
2018-08-28T06:06:03.764Z,8.28
2018-08-28T06:08:31.707Z,7.37
2018-08-28T06:10:59.614Z,6.45
2018-08-28T06:13:26.902Z,7.67
2018-08-28T06:15:54.888Z,7.42
2018-08-28T06:18:22.546Z,6.53
2018-08-28T06:20:50.018Z,6.67
2018-08-28T06:23:17.579Z,8.25
2018-08-28T06:25:45.037Z,6.65
2018-08-28T06:28:12.435Z,7.28
2018-08-28T06:30:40.265Z,8.03
2018-08-28T06:33:07.669Z,9.35
2018-08-28T06:35:35.064Z,9.08
2018-08-28T06:38:02.366Z,7.22
2018-08-28T06:40:29.734Z,7.45
2018-08-28T06:42:57.102Z,7.00
2018-08-28T06:45:24.438Z,7.35
2018-08-28T06:47:52.409Z,7.30
2018-08-28T06:50:20.023Z,6.72
2018-08-28T06:52:47.431Z,6.90
2018-08-28T06:55:14.746Z,7.78
2018-08-28T06:57:42.043Z,7.73
2018-08-28T07:00:09.392Z,9.03
2018-08-28T07:02:37.131Z,7.92
2018-08-28T07:05:04.577Z,7.55
2018-08-28T07:07:31.931Z,7.37
2018-08-28T07:09:59.291Z,8.20
2018-08-28T07:12:26.787Z,8.03
2018-08-28T07:14:54.106Z,7.58
2018-08-28T07:17:21.850Z,7.50
2018-08-28T07:19:49.233Z,7.77
2018-08-28T07:22:16.543Z,6.97
2018-08-28T07:24:43.861Z,7.33
2018-08-28T07:27:11.152Z,7.53
2018-08-28T07:29:38.443Z,8.07
2018-08-28T07:32:05.768Z,8.20
2018-08-28T07:34:33.867Z,7.80
2018-08-28T07:37:01.297Z,7.33
2018-08-28T07:39:28.634Z,8.30
2018-08-28T07:41:55.991Z,7.35
2018-08-28T07:44:23.498Z,9.53
2018-08-28T07:46:50.811Z,6.93
2018-08-28T07:49:18.257Z,7.63
2018-08-28T07:51:45.887Z,6.80
2018-08-28T07:54:13.187Z,7.00
2018-08-28T07:56:40.550Z,7.55
2018-08-28T07:59:07.861Z,7.60
2018-08-28T08:01:35.423Z,8.47
2018-08-28T08:04:02.591Z,9.03
2018-08-28T08:06:29.868Z,8.23
2018-08-28T08:08:57.692Z,7.90
2018-08-28T08:11:25.470Z,7.07
2018-08-28T08:13:52.916Z,7.63
2018-08-28T08:16:20.220Z,8.53
2018-08-28T08:18:47.601Z,8.10
2018-08-28T08:21:15.130Z,8.13
2018-08-28T08:23:42.745Z,6.80
2018-08-28T08:26:10.151Z,7.90
2018-08-28T08:28:38.027Z,7.33
2018-08-28T08:31:05.595Z,7.47
2018-08-28T08:33:32.930Z,7.87
2018-08-28T08:36:00.348Z,8.33
2018-08-28T08:38:27.927Z,7.70
2018-08-28T08:40:55.280Z,9.20
2018-08-28T08:43:22.561Z,8.10
2018-08-28T08:45:49.990Z,7.90
2018-08-28T08:48:17.304Z,6.37
2018-08-28T08:50:44.628Z,7.00
2018-08-28T08:53:11.951Z,7.20
2018-08-28T08:55:39.395Z,8.07
2018-08-28T08:58:06.683Z,6.47
2018-08-28T09:00:33.994Z,6.50
2018-08-28T09:03:01.283Z,7.20
2018-08-28T09:05:28.853Z,6.03
2018-08-28T09:07:56.132Z,5.70
2018-08-28T09:10:23.499Z,5.30
2018-08-28T09:12:51.106Z,5.13
2018-08-28T09:15:18.832Z,6.10
2018-08-28T09:17:46.143Z,5.07
2018-08-28T09:20:13.433Z,5.10
2018-08-28T09:22:40.769Z,6.57
2018-08-28T09:25:08.075Z,5.10
2018-08-28T09:27:35.486Z,5.03
2018-08-28T09:30:02.810Z,5.37
2018-08-28T09:32:30.160Z,5.00
2018-08-28T09:34:57.566Z,5.80
2018-08-28T09:37:24.912Z,6.20
2018-08-28T09:39:52.252Z,5.27
2018-08-28T09:42:19.642Z,4.67
2018-08-28T09:44:46.947Z,4.73
2018-08-28T09:47:14.235Z,5.20
2018-08-28T09:49:41.618Z,5.20
2018-08-28T09:52:10.047Z,5.40
2018-08-28T09:54:37.459Z,4.97
2018-08-28T09:57:05.354Z,4.83
2018-08-28T09:59:33.010Z,4.83
2018-08-28T10:02:00.508Z,5.20
2018-08-28T10:04:28.896Z,4.30
2018-08-28T10:06:56.322Z,4.37
2018-08-28T10:09:24.595Z,4.67
2018-08-28T10:11:52.174Z,5.23
2018-08-28T10:14:19.600Z,4.73
2018-08-28T10:16:47.515Z,4.33
2018-08-28T10:19:14.911Z,4.73
2018-08-28T10:21:42.502Z,5.20
2018-08-28T10:24:09.899Z,4.40
2018-08-28T10:26:38.187Z,3.90
2018-08-28T10:29:06.760Z,4.77
2018-08-28T10:31:34.504Z,4.10
2018-08-28T10:34:03.374Z,3.87
2018-08-28T10:36:35.060Z,5.87
2018-08-28T10:39:04.056Z,4.37
2018-08-28T10:41:31.419Z,4.30
2018-08-28T10:43:59.643Z,4.83
2018-08-28T10:46:27.083Z,4.70
2018-08-28T10:48:54.964Z,4.90
2018-08-28T10:51:22.401Z,4.20
2018-08-28T10:53:50.495Z,4.87
2018-08-28T10:56:19.003Z,4.30
2018-08-28T10:58:47.115Z,5.00
2018-08-28T11:01:15.050Z,5.00
2018-08-28T11:03:46.813Z,4.40
2018-08-28T11:06:14.227Z,5.20
2018-08-28T11:08:42.896Z,4.30
2018-08-28T11:11:10.458Z,4.50
2018-08-28T11:13:37.855Z,5.73
2018-08-28T11:16:05.599Z,5.30
2018-08-28T11:18:33.095Z,5.30
2018-08-28T11:21:00.683Z,4.33
2018-08-28T11:23:28.218Z,4.77
2018-08-28T11:25:55.546Z,4.87
2018-08-28T11:28:24.714Z,5.17
2018-08-28T11:30:52.325Z,4.97
2018-08-28T11:33:20.465Z,4.93
2018-08-28T11:35:48.665Z,5.10
2018-08-28T11:38:17.042Z,5.30
2018-08-28T11:40:44.396Z,5.27
2018-08-28T11:43:11.839Z,5.57
2018-08-28T11:45:39.229Z,5.00
2018-08-28T11:48:06.868Z,4.60
2018-08-28T11:50:34.378Z,4.20
2018-08-28T11:53:01.708Z,5.90
2018-08-28T11:55:29.846Z,4.77
2018-08-28T11:57:57.796Z,5.57
2018-08-28T12:00:25.221Z,5.17
2018-08-28T12:02:52.767Z,4.53
2018-08-28T12:05:20.191Z,5.17
2018-08-28T12:07:48.209Z,7.23
2018-08-28T12:10:15.543Z,5.67
2018-08-28T12:12:43.010Z,7.47
2018-08-28T12:15:10.511Z,6.93
2018-08-28T12:17:38.253Z,6.20
2018-08-28T12:20:05.954Z,6.70
2018-08-28T12:22:33.343Z,6.47
2018-08-28T12:25:00.817Z,6.20
2018-08-28T12:27:28.173Z,5.77
2018-08-28T12:29:55.475Z,6.10
2018-08-28T12:32:22.821Z,6.50
2018-08-28T12:34:50.368Z,7.07
2018-08-28T12:37:17.968Z,7.20
2018-08-28T12:39:45.446Z,6.73
2018-08-28T12:42:12.793Z,7.00
2018-08-28T12:44:40.117Z,6.93
2018-08-28T12:47:07.506Z,5.83
2018-08-28T12:49:34.840Z,6.87
2018-08-28T12:52:02.214Z,7.87
2018-08-28T12:54:30.136Z,8.27
2018-08-28T12:56:57.599Z,7.90
2018-08-28T12:59:24.887Z,8.00
2018-08-28T13:01:52.238Z,7.47
2018-08-28T13:04:19.539Z,8.10
2018-08-28T13:06:47.118Z,7.40
2018-08-28T13:09:15.798Z,7.57
2018-08-28T13:11:43.391Z,6.93
2018-08-28T13:14:10.787Z,6.47
2018-08-28T13:16:38.103Z,6.83
2018-08-28T13:19:05.529Z,6.97
2018-08-28T13:21:32.843Z,7.07
2018-08-28T13:24:00.175Z,7.70
2018-08-28T13:26:27.543Z,7.07
2018-08-28T13:28:54.949Z,6.90
2018-08-28T13:31:22.235Z,7.80
2018-08-28T13:33:49.602Z,8.00
2018-08-28T13:36:17.190Z,6.77
2018-08-28T13:38:44.556Z,7.00
2018-08-28T13:41:12.830Z,6.97
2018-08-28T13:43:40.234Z,6.53
2018-08-28T13:46:07.612Z,7.47
2018-08-28T13:48:34.929Z,6.70
2018-08-28T13:51:02.488Z,7.10
2018-08-28T13:53:30.436Z,7.30
2018-08-28T13:55:57.904Z,6.13
2018-08-28T13:58:25.714Z,6.60
2018-08-28T14:00:53.474Z,7.23
2018-08-28T14:03:20.810Z,6.90
2018-08-28T14:05:48.190Z,6.80
2018-08-28T14:08:15.491Z,6.97
2018-08-28T14:10:42.783Z,6.37
2018-08-28T14:13:10.191Z,6.80
2018-08-28T14:15:37.517Z,7.60
2018-08-28T14:18:04.890Z,7.83
2018-08-28T14:20:32.211Z,6.37
2018-08-28T14:22:59.563Z,5.80
2018-08-28T14:25:26.870Z,6.57
2018-08-28T14:27:54.556Z,6.90
2018-08-28T14:30:22.862Z,6.60
2018-08-28T14:32:50.156Z,5.50
2018-08-28T14:35:17.555Z,6.53
2018-08-28T14:37:45.090Z,6.40
2018-08-28T14:40:12.408Z,7.17
2018-08-28T14:42:39.824Z,7.20
2018-08-28T14:45:07.838Z,6.23
2018-08-28T14:47:35.342Z,6.73
2018-08-28T14:50:02.760Z,6.50
2018-08-28T14:52:30.015Z,6.90
2018-08-28T14:54:58.118Z,6.07
2018-08-28T14:57:25.651Z,6.70
2018-08-28T14:59:52.955Z,6.13
2018-08-28T15:02:20.300Z,6.40
2018-08-28T15:04:48.208Z,5.90
2018-08-28T15:07:15.618Z,6.40
2018-08-28T15:09:42.962Z,6.00
2018-08-28T15:12:10.284Z,6.50
2018-08-28T15:14:37.763Z,6.77
2018-08-28T15:17:05.116Z,6.80
2018-08-28T15:19:32.476Z,6.03
2018-08-28T15:22:00.291Z,5.97
2018-08-28T15:24:28.401Z,6.00
2018-08-28T15:26:55.906Z,7.37
2018-08-28T15:29:23.218Z,6.00
2018-08-28T15:31:51.248Z,6.43
2018-08-28T15:34:18.550Z,5.73
2018-08-28T15:36:45.843Z,6.37
2018-08-28T15:39:13.142Z,6.70
2018-08-28T15:41:40.552Z,6.27
2018-08-28T15:44:07.843Z,6.50
2018-08-28T15:46:35.358Z,7.37
2018-08-28T15:49:03.196Z,8.20
2018-08-28T15:51:30.561Z,6.40
2018-08-28T15:53:57.885Z,8.57
2018-08-28T15:56:25.234Z,6.20
2018-08-28T15:58:52.756Z,5.90
2018-08-28T16:01:20.305Z,6.77
2018-08-28T16:03:47.622Z,7.30
2018-08-28T16:06:15.634Z,7.10
2018-08-28T16:08:43.008Z,7.07
2018-08-28T16:11:10.348Z,6.20
2018-08-28T16:13:37.690Z,6.37
2018-08-28T16:16:05.052Z,6.30
2018-08-28T16:18:32.461Z,6.30
2018-08-28T16:20:59.860Z,7.20
2018-08-28T16:23:31.583Z,6.60
2018-08-28T16:25:59.254Z,6.90
2018-08-28T16:28:26.894Z,7.70
2018-08-28T16:30:54.263Z,7.40
2018-08-28T16:33:21.603Z,7.80
2018-08-28T16:35:48.961Z,7.00
2018-08-28T16:38:16.299Z,7.70
2018-08-28T16:40:43.701Z,7.47
2018-08-28T16:43:11.291Z,7.83
2018-08-28T16:45:39.623Z,7.50
2018-08-28T16:48:08.481Z,7.53
2018-08-28T16:50:35.960Z,7.70
2018-08-28T16:53:03.992Z,6.70
2018-08-28T16:55:31.420Z,7.40
2018-08-28T16:57:58.844Z,6.07
2018-08-28T17:00:27.332Z,6.97
2018-08-28T17:02:54.924Z,7.73
2018-08-28T17:05:22.332Z,7.80
2018-08-28T17:07:49.716Z,7.30
2018-08-28T17:10:17.943Z,8.47
2018-08-28T17:12:46.879Z,7.33
2018-08-28T17:15:15.300Z,7.60
2018-08-28T17:17:42.709Z,8.37
2018-08-28T17:20:11.007Z,7.77
2018-08-28T17:22:42.830Z,7.70
2018-08-28T17:25:10.289Z,7.90
2018-08-28T17:27:37.662Z,7.90
2018-08-28T17:30:05.443Z,8.50
2018-08-28T17:32:32.846Z,7.80
2018-08-28T17:35:00.319Z,8.00
2018-08-28T17:37:27.910Z,8.90
2018-08-28T17:39:55.459Z,8.07
2018-08-28T17:42:23.743Z,8.57
2018-08-28T17:44:51.090Z,7.70
2018-08-28T17:47:18.517Z,7.43
2018-08-28T17:49:45.915Z,9.37
2018-08-28T17:52:13.446Z,8.70
2018-08-28T17:54:41.061Z,8.73
2018-08-28T17:57:08.724Z,8.30
2018-08-28T17:59:36.488Z,9.00
2018-08-28T18:02:03.952Z,8.03
2018-08-28T18:04:31.504Z,8.20
2018-08-28T18:06:59.133Z,7.70
2018-08-28T18:09:26.745Z,8.37
2018-08-28T18:11:54.510Z,8.30
2018-08-28T18:14:21.939Z,7.97
2018-08-28T18:16:49.307Z,7.80
2018-08-28T18:19:16.762Z,8.37
2018-08-28T18:21:44.117Z,7.93
2018-08-28T18:24:11.843Z,8.60
2018-08-28T18:26:39.782Z,7.90
2018-08-28T18:29:07.248Z,8.50
2018-08-28T18:31:39.360Z,7.50
2018-08-28T18:34:06.733Z,7.23
2018-08-28T18:36:34.142Z,6.70
2018-08-28T18:39:01.592Z,7.73
2018-08-28T18:41:28.944Z,7.10
2018-08-28T18:43:56.476Z,7.17
2018-08-28T18:46:23.978Z,7.00
2018-08-28T18:48:51.496Z,7.83
2018-08-28T18:51:18.888Z,8.43
2018-08-28T18:53:46.902Z,8.27
2018-08-28T18:56:14.287Z,7.43
2018-08-28T18:58:41.671Z,6.90
2018-08-28T19:01:13.405Z,6.80
2018-08-28T19:03:40.802Z,6.87
2018-08-28T19:06:08.205Z,6.80
2018-08-28T19:08:39.808Z,7.20
2018-08-28T19:11:07.195Z,7.17
2018-08-28T19:13:34.832Z,7.40
2018-08-28T19:16:02.190Z,7.78
2018-08-28T19:18:30.385Z,8.20
2018-08-28T19:20:57.901Z,6.90
2018-08-28T19:23:26.149Z,7.10
2018-08-28T19:25:54.153Z,7.05
2018-08-28T19:28:21.522Z,6.70
2018-08-28T19:30:48.939Z,7.42
2018-08-28T19:33:16.470Z,7.93
2018-08-28T19:35:44.018Z,7.50
2018-08-28T19:38:11.487Z,7.42
2018-08-28T19:40:38.922Z,6.92
2018-08-28T19:43:06.412Z,8.20
2018-08-28T19:45:34.602Z,7.93
2018-08-28T19:48:02.017Z,7.67
2018-08-28T19:50:29.468Z,6.90
2018-08-28T19:52:57.073Z,7.20
2018-08-28T19:55:25.158Z,6.57
2018-08-28T19:57:52.602Z,7.20
2018-08-28T20:00:23.948Z,7.33
2018-08-28T20:02:51.426Z,6.83
2018-08-28T20:05:19.326Z,7.45
2018-08-28T20:07:47.062Z,6.40
2018-08-28T20:10:19.258Z,6.57
2018-08-28T20:12:47.311Z,7.03
2018-08-28T20:15:15.002Z,6.75
2018-08-28T20:17:43.152Z,6.73
2018-08-28T20:20:11.231Z,6.67
2018-08-28T20:22:38.881Z,8.20
2018-08-28T20:25:06.356Z,7.55
2018-08-28T20:27:33.851Z,9.00
2018-08-28T20:30:02.068Z,7.00
2018-08-28T20:32:29.407Z,8.65
2018-08-28T20:34:57.718Z,6.70
2018-08-28T20:37:30.393Z,6.12
2018-08-28T20:39:58.041Z,7.30
2018-08-28T20:42:26.108Z,7.05
2018-08-28T20:44:54.074Z,7.40
2018-08-28T20:47:21.547Z,6.30
2018-08-28T20:49:49.007Z,7.20
2018-08-28T20:52:16.561Z,6.37
2018-08-28T20:54:44.018Z,7.05
2018-08-28T20:57:11.397Z,6.45
2018-08-28T20:59:39.684Z,6.43
2018-08-28T21:02:07.275Z,7.55
2018-08-28T21:04:35.796Z,7.10
2018-08-28T21:07:03.404Z,6.92
2018-08-28T21:09:30.980Z,6.55
2018-08-28T21:11:58.493Z,5.77
2018-08-28T21:14:25.996Z,7.50
2018-08-28T21:16:53.356Z,5.75
2018-08-28T21:19:21.007Z,6.92
2018-08-28T21:21:49.273Z,6.58
2018-08-28T21:24:16.650Z,8.45
2018-08-28T21:26:44.100Z,7.30
2018-08-28T21:29:11.562Z,7.42
2018-08-28T21:31:39.443Z,8.80
2018-08-28T21:34:08.051Z,6.53
2018-08-28T21:36:36.251Z,6.33
2018-08-28T21:39:05.189Z,7.80
2018-08-28T21:41:32.646Z,7.00
2018-08-28T21:44:01.202Z,7.70
2018-08-28T21:46:29.256Z,6.92
2018-08-28T21:48:56.685Z,6.90
2018-08-28T21:51:28.227Z,6.60
2018-08-28T21:53:55.705Z,7.35
2018-08-28T21:56:23.058Z,7.10
2018-08-28T21:58:55.403Z,7.80
2018-08-28T22:01:22.758Z,6.97
2018-08-28T22:03:50.715Z,7.22
2018-08-28T22:06:23.489Z,6.05
2018-08-28T22:08:50.870Z,6.22
2018-08-28T22:11:18.375Z,7.60
2018-08-28T22:13:45.729Z,6.95
2018-08-28T22:16:13.846Z,7.17
2018-08-28T22:18:42.199Z,6.70
2018-08-28T22:21:09.717Z,7.00
2018-08-28T22:23:37.330Z,6.35
2018-08-28T22:28:31.643Z,6.40
2018-08-28T22:31:00.399Z,7.80
2018-08-28T22:33:27.827Z,6.40
2018-08-28T22:35:57.461Z,7.60
2018-08-28T22:38:24.862Z,6.70
2018-08-28T22:40:53.402Z,7.17
2018-08-28T22:43:22.897Z,7.00
2018-08-28T22:45:50.521Z,7.37
2018-08-28T22:48:18.877Z,7.42
2018-08-28T22:50:46.708Z,5.83
2018-08-28T22:53:14.032Z,6.87
2018-08-28T22:55:41.435Z,7.35
2018-08-28T22:58:08.791Z,7.12
2018-08-28T23:00:37.245Z,6.92
2018-08-28T23:03:05.384Z,6.72
2018-08-28T23:05:32.937Z,6.58
2018-08-28T23:08:04.840Z,6.42
2018-08-28T23:10:32.880Z,6.90
2018-08-28T23:13:00.951Z,7.25
2018-08-28T23:15:28.329Z,7.47
2018-08-28T23:17:56.303Z,7.15
2018-08-28T23:20:23.596Z,5.97
2018-08-28T23:22:55.100Z,7.33
2018-08-28T23:25:22.470Z,6.42
2018-08-28T23:30:21.819Z,6.12
2018-08-28T23:32:49.183Z,6.95
2018-08-28T23:35:16.742Z,7.40
2018-08-28T23:40:10.868Z,6.80
2018-08-28T23:42:39.214Z,5.95
2018-08-28T23:45:07.436Z,7.17
2018-08-28T23:47:34.896Z,7.50
2018-08-28T23:50:02.412Z,6.80
2018-08-28T23:54:56.850Z,6.65
2018-08-28T23:57:24.933Z,6.08
2018-08-28T23:59:52.991Z,8.08
